Bulutlu
Bulutlu
Bulutlu ve hafif yağmurlu
Bulutlu ve hafif yağmurlu
Bulutlu ve hafif yağmurlu
Bulutlu
Bulutlu
(°C)
(°C)
B
B
BGB
BGB
BGB
BGB
GB
(km/h)
19-35
19-37
18-36
18-32
16-32
15-31
13-24
(mm)
0
0
0.1
0.1
0.1
0
0
(%)
64
57
47
46
40
23
23

Güneşin açısı

/ 50.9°
sun-icon
UV 2
05:59
20:40
Küçülen ay (197°)
22:57
06:13

Bordenau (ETNW) için METAR

Zaman Koşullar Sıcaklık/
Çiy noktası
Rüzgar Görünürlük Hava Bulutlar Basınç Değiştir Ham
VFR 9°C / 2°C 260º 11kt 9700m - Few Clouds 2000ft
Scattered Clouds 5000ft
Broken Clouds 10000ft
1004 Temporary: Hail . ETNW 251020Z 26011KT 9999 FEW020 SCT050 BKN100 09/02 Q1004 BLU BLU TEMPO GRN
VFR 6°C / 4°C 270º 12kt 9700m Light Showers Rain 3.00mm precipitation Few Clouds 1000ft
Scattered Clouds 1400ft
Broken Clouds 4500ft
1004 Temporary: Hail . ETNW 250920Z 27012KT 9999 -SHRA FEW010 SCT014 BKN045 06/04 Q1004 BLU BLU TEMPO GRN
VFR 7°C / 3°C 260º 7kt 9700m - Scattered Clouds 1200ft
Broken Clouds 4500ft
1004 Temporary: Hail . ETNW 250820Z 26007KT 9999 SCT012 BKN045 07/03 Q1004 BLU BLU TEMPO GRN
IFR 5°C / 3°C 270º 8kt 9700m - Broken Clouds 900ft 1004 Temporary: Hail . ETNW 250720Z 27008KT 9999 BKN009 05/03 Q1004 GRN BLU TEMPO GRN
IFR 4°C / 3°C 260º 9kt 9700m - Broken Clouds 800ft 1004 Temporary: Hail . ETNW 250620Z 26009KT 9999 BKN008 04/03 Q1004 GRN BLU TEMPO GRN
VFR 4°C / 3°C 260º 8kt 9700m - Few Clouds 900ft
Broken Clouds 4500ft
1004 Temporary: Hail . ETNW 250520Z 26008KT 9999 FEW009 BKN045 04/03 Q1004 BLU BLU TEMPO GRN
VFR 4°C / 3°C 270º 6kt 9700m - Few Clouds 900ft
Scattered Clouds 2400ft
Broken Clouds 4500ft
1004 Temporary: Hail . ETNW 250420Z 27006KT 9999 FEW009 SCT024 BKN045 04/03 Q1004 BLU BLU TEMPO GRN
MVFR 4°C / 3°C 270º 8kt 9700m - Few Clouds 1100ft
Broken Clouds 2400ft
Broken Clouds 4600ft
1004 - ETNW 250320Z 27008KT 9999 FEW011 BKN024 BKN046 04/03 Q1004 WHT
MVFR 4°C / 3°C 280º 9kt 9700m - Scattered Clouds 1100ft
Broken Clouds 2100ft
1003 - ETNW 250220Z 28009KT 9999 SCT011 BKN021 04/03 Q1003 WHT
MVFR 4°C / 3°C 310º 9kt 9700m Light Rain 1.00mm precipitation Broken Clouds 1100ft
Broken Clouds 2100ft
1004 - ETNW 250120Z 31009KT 9999 -RA BKN011 BKN021 04/03 Q1004 GRN
MVFR 5°C / 4°C 300º 10kt 9700m - Broken Clouds 1100ft
Broken Clouds 1800ft
1004 - ETNW 250020Z 30010KT 9999 BKN011 BKN018 05/04 Q1004 GRN
MVFR 5°C / 3°C 300º 8kt 9700m Light Rain 1.00mm precipitation Few Clouds 800ft
Broken Clouds 1100ft
1004 - ETNW 242322Z 30008KT 9999 -RA FEW008 BKN011 05/03 Q1004 GRN
MVFR 5°C / 4°C 300º 9kt 9700m - Few Clouds 1100ft
Scattered Clouds 1600ft
Broken Clouds 2400ft
1004 - ETNW 242220Z 30009KT 9999 FEW011 SCT016 BKN024 05/04 Q1004 WHT FCST CNL
MVFR 5°C / 4°C 290º 7kt 9700m - Few Clouds 1100ft
Broken Clouds 2300ft
Broken Clouds 3500ft
1004 Temporary: Hail . ETNW 242120Z 29007KT 9999 FEW011 BKN023 BKN035 05/04 Q1004 WHT BLU TEMPO GRN
MVFR 5°C / 4°C 310º 8kt 9700m - Few Clouds 1100ft
Broken Clouds 1900ft
Broken Clouds 3200ft
1004 Temporary: Hail . ETNW 242043Z 31008KT 9999 FEW011TCU BKN019 BKN032 05/04 Q1004 WHT BLU TEMPO GRN
MVFR 5°C / 4°C 300º 7kt 9700m - Few Clouds 1100ft
Broken Clouds 1900ft
Broken Clouds 3200ft
1004 - ETNW 242020Z 30007KT 9999 FEW011TCU BKN019 BKN032 05/04 Q1004 WHT
MVFR 6°C / 4°C 250º 6kt 9700m - Scattered Clouds 1200ft
Broken Clouds 2900ft
Broken Clouds 4600ft
1003 - ETNW 241920Z 25006KT 9999 SCT012TCU BKN029 BKN046 06/04 Q1003 BLU
MVFR 6°C / 4°C 250º 5kt 9700m - Few Clouds 1200ft
Broken Clouds 3000ft
Broken Clouds 7000ft
1003 - ETNW 241820Z 25005KT 9999 FEW012TCU BKN030 BKN070 06/04 Q1003 BLU
VFR 6°C / 4°C 200º 5kt 9700m - Few Clouds 1200ft
Broken Clouds 4000ft
Broken Clouds 14000ft
1003 - ETNW 241720Z 20005KT 9999 FEW012CB BKN040 BKN140 06/04 Q1003 BLU FCST CNL
MVFR 6°C / 3°C 190º 5kt 9700m - Few Clouds 1200ft
Broken Clouds 2000ft
Broken Clouds 14000ft
1003 Temporary: Hail . ETNW 241620Z 19005KT 9999 FEW012 BKN020 BKN140 06/03 Q1003 WHT BLU TEMPO GRN
MVFR 6°C / 3°C 250º 2kt 9700m - Few Clouds 1100ft
Broken Clouds 2000ft
Broken Clouds 10000ft
1003 Temporary: Hail . ETNW 241520Z 25002KT 9999 FEW011CB BKN020 BKN100 06/03 Q1003 RESHRA WHT BLU TEMPO GRN
MVFR 4°C / 3°C 250º 7kt 9700m Light Showers Rain 3.00mm precipitation Scattered Clouds 1100ft
Broken Clouds 2000ft
1004 Temporary: Hail . ETNW 241454Z 25007KT 9999 -SHRA SCT011CB BKN020 04/03 Q1004 RESHRA WHT BLU TEMPO GRN
IFR 5°C / 3°C 220º 5kt 4000m Light Showers Rain 3.00mm precipitation Scattered Clouds 1100ft
Broken Clouds 2500ft
1004 Temporary: Hail . ETNW 241441Z 22005KT 4000 -SHRA SCT011CB BKN025 05/03 Q1004 GRN BLU TEMPO GRN
MVFR 5°C / 2°C 210º 7kt 9700m Light Showers Rain 3.00mm precipitation Scattered Clouds 1100ft
Broken Clouds 2500ft
1003 Temporary: Hail . ETNW 241434Z 21007KT 9999 -SHRA SCT011CB BKN025 05/02 Q1003 BLU BLU TEMPO GRN

VFR

9°C / 2°C

[Daha fazla]
Rüzgar 260º 11kt
Görünürlük 9700m
Hava -
Bulutlar Few Clouds 2000ft
Scattered Clouds 5000ft
Broken Clouds 10000ft
Basınç 1004
Değiştir Temporary: Hail .
Ham ETNW 251020Z 26011KT 9999 FEW020 SCT050 BKN100 09/02 Q1004 BLU BLU TEMPO GRN

VFR

6°C / 4°C

[Daha fazla]
Rüzgar 270º 12kt
Görünürlük 9700m
Hava Light Showers Rain 3.00mm precipitation
Bulutlar Few Clouds 1000ft
Scattered Clouds 1400ft
Broken Clouds 4500ft
Basınç 1004
Değiştir Temporary: Hail .
Ham ETNW 250920Z 27012KT 9999 -SHRA FEW010 SCT014 BKN045 06/04 Q1004 BLU BLU TEMPO GRN

VFR

7°C / 3°C

[Daha fazla]
Rüzgar 260º 7kt
Görünürlük 9700m
Hava -
Bulutlar Scattered Clouds 1200ft
Broken Clouds 4500ft
Basınç 1004
Değiştir Temporary: Hail .
Ham ETNW 250820Z 26007KT 9999 SCT012 BKN045 07/03 Q1004 BLU BLU TEMPO GRN

IFR

5°C / 3°C

[Daha fazla]
Rüzgar 270º 8kt
Görünürlük 9700m
Hava -
Bulutlar Broken Clouds 900ft
Basınç 1004
Değiştir Temporary: Hail .
Ham ETNW 250720Z 27008KT 9999 BKN009 05/03 Q1004 GRN BLU TEMPO GRN

IFR

4°C / 3°C

[Daha fazla]
Rüzgar 260º 9kt
Görünürlük 9700m
Hava -
Bulutlar Broken Clouds 800ft
Basınç 1004
Değiştir Temporary: Hail .
Ham ETNW 250620Z 26009KT 9999 BKN008 04/03 Q1004 GRN BLU TEMPO GRN

VFR

4°C / 3°C

[Daha fazla]
Rüzgar 260º 8kt
Görünürlük 9700m
Hava -
Bulutlar Few Clouds 900ft
Broken Clouds 4500ft
Basınç 1004
Değiştir Temporary: Hail .
Ham ETNW 250520Z 26008KT 9999 FEW009 BKN045 04/03 Q1004 BLU BLU TEMPO GRN

VFR

4°C / 3°C

[Daha fazla]
Rüzgar 270º 6kt
Görünürlük 9700m
Hava -
Bulutlar Few Clouds 900ft
Scattered Clouds 2400ft
Broken Clouds 4500ft
Basınç 1004
Değiştir Temporary: Hail .
Ham ETNW 250420Z 27006KT 9999 FEW009 SCT024 BKN045 04/03 Q1004 BLU BLU TEMPO GRN

MVFR

4°C / 3°C

[Daha fazla]
Rüzgar 270º 8kt
Görünürlük 9700m
Hava -
Bulutlar Few Clouds 1100ft
Broken Clouds 2400ft
Broken Clouds 4600ft
Basınç 1004
Değiştir -
Ham ETNW 250320Z 27008KT 9999 FEW011 BKN024 BKN046 04/03 Q1004 WHT

MVFR

4°C / 3°C

[Daha fazla]
Rüzgar 280º 9kt
Görünürlük 9700m
Hava -
Bulutlar Scattered Clouds 1100ft
Broken Clouds 2100ft
Basınç 1003
Değiştir -
Ham ETNW 250220Z 28009KT 9999 SCT011 BKN021 04/03 Q1003 WHT

MVFR

4°C / 3°C

[Daha fazla]
Rüzgar 310º 9kt
Görünürlük 9700m
Hava Light Rain 1.00mm precipitation
Bulutlar Broken Clouds 1100ft
Broken Clouds 2100ft
Basınç 1004
Değiştir -
Ham ETNW 250120Z 31009KT 9999 -RA BKN011 BKN021 04/03 Q1004 GRN

MVFR

5°C / 4°C

[Daha fazla]
Rüzgar 300º 10kt
Görünürlük 9700m
Hava -
Bulutlar Broken Clouds 1100ft
Broken Clouds 1800ft
Basınç 1004
Değiştir -
Ham ETNW 250020Z 30010KT 9999 BKN011 BKN018 05/04 Q1004 GRN

MVFR

5°C / 3°C

[Daha fazla]
Rüzgar 300º 8kt
Görünürlük 9700m
Hava Light Rain 1.00mm precipitation
Bulutlar Few Clouds 800ft
Broken Clouds 1100ft
Basınç 1004
Değiştir -
Ham ETNW 242322Z 30008KT 9999 -RA FEW008 BKN011 05/03 Q1004 GRN

MVFR

5°C / 4°C

[Daha fazla]
Rüzgar 300º 9kt
Görünürlük 9700m
Hava -
Bulutlar Few Clouds 1100ft
Scattered Clouds 1600ft
Broken Clouds 2400ft
Basınç 1004
Değiştir -
Ham ETNW 242220Z 30009KT 9999 FEW011 SCT016 BKN024 05/04 Q1004 WHT FCST CNL

MVFR

5°C / 4°C

[Daha fazla]
Rüzgar 290º 7kt
Görünürlük 9700m
Hava -
Bulutlar Few Clouds 1100ft
Broken Clouds 2300ft
Broken Clouds 3500ft
Basınç 1004
Değiştir Temporary: Hail .
Ham ETNW 242120Z 29007KT 9999 FEW011 BKN023 BKN035 05/04 Q1004 WHT BLU TEMPO GRN

MVFR

5°C / 4°C

[Daha fazla]
Rüzgar 310º 8kt
Görünürlük 9700m
Hava -
Bulutlar Few Clouds 1100ft
Broken Clouds 1900ft
Broken Clouds 3200ft
Basınç 1004
Değiştir Temporary: Hail .
Ham ETNW 242043Z 31008KT 9999 FEW011TCU BKN019 BKN032 05/04 Q1004 WHT BLU TEMPO GRN

MVFR

5°C / 4°C

[Daha fazla]
Rüzgar 300º 7kt
Görünürlük 9700m
Hava -
Bulutlar Few Clouds 1100ft
Broken Clouds 1900ft
Broken Clouds 3200ft
Basınç 1004
Değiştir -
Ham ETNW 242020Z 30007KT 9999 FEW011TCU BKN019 BKN032 05/04 Q1004 WHT

MVFR

6°C / 4°C

[Daha fazla]
Rüzgar 250º 6kt
Görünürlük 9700m
Hava -
Bulutlar Scattered Clouds 1200ft
Broken Clouds 2900ft
Broken Clouds 4600ft
Basınç 1003
Değiştir -
Ham ETNW 241920Z 25006KT 9999 SCT012TCU BKN029 BKN046 06/04 Q1003 BLU

MVFR

6°C / 4°C

[Daha fazla]
Rüzgar 250º 5kt
Görünürlük 9700m
Hava -
Bulutlar Few Clouds 1200ft
Broken Clouds 3000ft
Broken Clouds 7000ft
Basınç 1003
Değiştir -
Ham ETNW 241820Z 25005KT 9999 FEW012TCU BKN030 BKN070 06/04 Q1003 BLU

VFR

6°C / 4°C

[Daha fazla]
Rüzgar 200º 5kt
Görünürlük 9700m
Hava -
Bulutlar Few Clouds 1200ft
Broken Clouds 4000ft
Broken Clouds 14000ft
Basınç 1003
Değiştir -
Ham ETNW 241720Z 20005KT 9999 FEW012CB BKN040 BKN140 06/04 Q1003 BLU FCST CNL

MVFR

6°C / 3°C

[Daha fazla]
Rüzgar 190º 5kt
Görünürlük 9700m
Hava -
Bulutlar Few Clouds 1200ft
Broken Clouds 2000ft
Broken Clouds 14000ft
Basınç 1003
Değiştir Temporary: Hail .
Ham ETNW 241620Z 19005KT 9999 FEW012 BKN020 BKN140 06/03 Q1003 WHT BLU TEMPO GRN

MVFR

6°C / 3°C

[Daha fazla]
Rüzgar 250º 2kt
Görünürlük 9700m
Hava -
Bulutlar Few Clouds 1100ft
Broken Clouds 2000ft
Broken Clouds 10000ft
Basınç 1003
Değiştir Temporary: Hail .
Ham ETNW 241520Z 25002KT 9999 FEW011CB BKN020 BKN100 06/03 Q1003 RESHRA WHT BLU TEMPO GRN

MVFR

4°C / 3°C

[Daha fazla]
Rüzgar 250º 7kt
Görünürlük 9700m
Hava Light Showers Rain 3.00mm precipitation
Bulutlar Scattered Clouds 1100ft
Broken Clouds 2000ft
Basınç 1004
Değiştir Temporary: Hail .
Ham ETNW 241454Z 25007KT 9999 -SHRA SCT011CB BKN020 04/03 Q1004 RESHRA WHT BLU TEMPO GRN

IFR

5°C / 3°C

[Daha fazla]
Rüzgar 220º 5kt
Görünürlük 4000m
Hava Light Showers Rain 3.00mm precipitation
Bulutlar Scattered Clouds 1100ft
Broken Clouds 2500ft
Basınç 1004
Değiştir Temporary: Hail .
Ham ETNW 241441Z 22005KT 4000 -SHRA SCT011CB BKN025 05/03 Q1004 GRN BLU TEMPO GRN

MVFR

5°C / 2°C

[Daha fazla]
Rüzgar 210º 7kt
Görünürlük 9700m
Hava Light Showers Rain 3.00mm precipitation
Bulutlar Scattered Clouds 1100ft
Broken Clouds 2500ft
Basınç 1003
Değiştir Temporary: Hail .
Ham ETNW 241434Z 21007KT 9999 -SHRA SCT011CB BKN025 05/02 Q1003 BLU BLU TEMPO GRN

Bordenau (ETNW) için TAF

From till


From till Wind 260º 10kt. Visibility 9700m. Scattered Clouds 2000ft. Broken Clouds 5000ft.
Temporarly from till Wind 270º 12kt. Gust 22kt. Visibility 4000m. Showers Rain Showers Small Hail and/or Snow . Broken Clouds 2000ft.
With 30% probability, from till Wind 270º 12kt. Gust 25kt. Visibility 2000m. Thunderstorm Rain Thunderstorm Small Hail and/or Snow . Broken Clouds 1200ft.
Becoming from till
Temporarly from till Wind 160º 5kt. Visibility 5000m. Light Rain . Broken Clouds 2000ft.
Temporarly from till Wind 210º 8kt. Visibility 5000m. Light Rain . Broken Clouds 2000ft.

Ham: TAF COR ETNW 251016Z 2511/2611 26010KT 9999 NSW SCT020 BKN050 TEMPO 2511/2518 27012G22KT 4000 SHRAGS BKN020CB PROB30 2512/2518 27012G25KT 2000 TSRAGS BKN012CB BECMG 2518/2520 18006KT 9999 NSW BKN030 TEMPO 2522/2607 16005KT 5000 -RA BKN020 TEMPO 2607/2611 21008KT 5000 -RA BKN020

rainNOW: Şimdi Bordenau ve çevresi için yağmur yağıyor (25km yarıçap)

0.0 mm
0.0 mm
0.0 mm
0.0 mm
0.0 mm
0.2 mm
0.0 mm
0.0 mm
0.0 mm
0.0 mm
0.0 mm
0.0 mm

Bordenau için radar ve yağış nowcast

Çise
Hafif
Orta
Ağır
Çok ağır
Dolu

Konum işaretleyicisi Bordenau üzerine yerleştirilir. Bu animasyon, seçilen zaman aralığı için yağış radarının yanı sıra 2h tahminini gösterir. Turuncu çarpılar yıldırımı göstermektedir. Veriler nowcast.de tarafından sağlanmıştır (ABD, Avrupa ve Avustralya'da erişimi mevcuttur). Çiseleyen yağmur veya hafif kar yağışı radarda görünmeyebilir. Yağış yoğunluğu turkuazdan kırmızıya kadar değişen renklerle kodlanmıştır.

Bordenau için şu anki uydu ve yağmur görüntüleri, Almanya

Konum işaretleyici Bordenau üzerine yerleştirilir. [Daha fazla]

Gerçek zamanlı uydu görüntüsü gündüz süresince görülür ışığı gece süresince kızılötesi ışınım ile birleştirir. Gece kızılötesi ışınım sıcaklık farklarını algılayabildiğinden dolayı görüntü karanlık değildir. Ancak düşük bulutları ve sisi yer sıcaklığından ayırmak zordur ve bu nedenle gece boyunca neredeyse görünmez olabilirler. Avrupa için Meteosat uydu görüntüleri gerçek zamanlı olarak her 5 dakikada bir güncellenir. GOES-16/GOES-17 (Kuzey ve Güney Amerika) ve Himawari (Asya) görüntüleri her 10 dakikada bir güncellenir.

Yağış radar ve uydulardan tahmin edilir. Uydulardan elde edilen yağış tahminleri geceleri gündüze göre daha az doğrudur.

© 2024 meteoblue, NOAA Satellites GOES-16 and EUMETSAT. nowcast tarafından sağlanan şimşek verileri.

En başa git
×
Merhaba,
bir reklam engelleyici kullanıyormuşsunuz gibi görünüyor.

Reklam, ücretsiz web sitemizi benzersiz ayrıntı ve doğrulukla sürdürmek için çok önemlidir.

Lütfen reklam engelleyicinizde www.meteoblue.com beyaz listesini beyaz listeye alın veya ürünlerimizden birini satın almayı düşünün:

Zaten bir aboneliğiniz var mı?
O halde lütfen giriş yapın.